createdAt,value
2022-12-27T00:01:29.564Z,1.00
2022-12-27T00:03:36.981Z,1.42
2022-12-27T00:07:48.307Z,1.13
2022-12-27T00:09:53.679Z,1.60
2022-12-27T00:11:59.810Z,0.55
2022-12-27T00:14:05.490Z,0.75
2022-12-27T00:16:11.090Z,1.00
2022-12-27T00:18:12.605Z,1.02
2022-12-27T00:20:14.073Z,0.70
2022-12-27T00:22:21.502Z,0.82
2022-12-27T00:24:28.833Z,1.25
2022-12-27T00:26:34.070Z,1.30
2022-12-27T00:28:35.705Z,1.15
2022-12-27T00:30:39.897Z,2.22
2022-12-27T00:32:41.469Z,0.90
2022-12-27T00:34:45.969Z,0.50
2022-12-27T00:36:47.444Z,0.50
2022-12-27T00:38:49.374Z,0.50
2022-12-27T00:40:50.837Z,0.80
2022-12-27T00:45:02.060Z,1.42
2022-12-27T00:47:18.215Z,1.20
2022-12-27T00:49:33.711Z,0.70
2022-12-27T00:51:55.920Z,0.50
2022-12-27T00:54:16.163Z,0.57
2022-12-27T00:56:36.229Z,1.02
2022-12-27T00:58:48.382Z,1.70
2022-12-27T01:01:18.632Z,0.57
2022-12-27T01:03:36.820Z,0.60
2022-12-27T01:05:50.658Z,0.50
2022-12-27T01:08:04.573Z,0.88
2022-12-27T01:10:23.248Z,0.57
2022-12-27T01:12:40.723Z,1.05
2022-12-27T01:14:56.171Z,0.57
2022-12-27T01:17:09.671Z,0.60
2022-12-27T01:19:23.982Z,0.80
2022-12-27T01:21:37.849Z,0.88
2022-12-27T01:23:48.829Z,0.45
2022-12-27T01:26:00.636Z,1.20
2022-12-27T01:28:02.043Z,2.08
2022-12-27T01:32:07.646Z,0.90
2022-12-27T01:34:09.093Z,0.55
2022-12-27T01:36:15.367Z,1.85
2022-12-27T01:38:16.823Z,1.10
2022-12-27T01:40:18.497Z,0.70
2022-12-27T01:42:39.003Z,0.57
2022-12-27T01:44:49.613Z,0.55
2022-12-27T01:46:54.808Z,0.47
2022-12-27T01:48:56.524Z,0.50
2022-12-27T01:51:02.112Z,0.60
2022-12-27T01:53:13.185Z,0.43
2022-12-27T01:55:17.697Z,1.50
2022-12-27T01:57:22.160Z,0.45
2022-12-27T01:59:24.197Z,0.75
2022-12-27T02:01:27.790Z,0.55
2022-12-27T02:03:31.147Z,0.80
2022-12-27T02:05:33.093Z,0.40
2022-12-27T02:07:46.013Z,0.30
2022-12-27T02:09:54.996Z,0.30
2022-12-27T02:12:01.833Z,0.30
2022-12-27T02:14:06.496Z,0.85
2022-12-27T02:16:16.260Z,0.50
2022-12-27T02:18:18.786Z,0.30
2022-12-27T02:20:25.134Z,0.38
2022-12-27T02:22:29.684Z,0.45
2022-12-27T02:24:49.627Z,0.60
2022-12-27T02:26:51.174Z,0.30
2022-12-27T02:29:14.565Z,0.30
2022-12-27T02:31:41.722Z,0.80
2022-12-27T02:33:46.806Z,0.70
2022-12-27T02:35:52.720Z,0.32
2022-12-27T02:38:03.585Z,0.28
2022-12-27T02:40:26.015Z,0.40
2022-12-27T02:42:48.588Z,0.40
2022-12-27T02:45:11.434Z,0.40
2022-12-27T02:47:39.250Z,1.13
2022-12-27T02:50:02.725Z,0.30
2022-12-27T02:52:28.150Z,0.65
2022-12-27T02:54:41.805Z,0.40
2022-12-27T02:57:09.811Z,0.60
2022-12-27T02:59:11.324Z,0.20
2022-12-27T03:01:31.575Z,0.20
2022-12-27T03:03:39.677Z,0.95
2022-12-27T03:06:24.022Z,0.30
2022-12-27T03:08:38.345Z,0.55
2022-12-27T03:11:15.955Z,0.60
2022-12-27T03:13:59.003Z,0.32
2022-12-27T03:16:16.591Z,0.20
2022-12-27T03:18:40.835Z,0.20
2022-12-27T03:21:04.519Z,0.22
2022-12-27T03:23:26.108Z,0.20
2022-12-27T03:25:28.109Z,0.17
2022-12-27T03:27:32.004Z,0.20
2022-12-27T03:29:52.135Z,0.68
2022-12-27T03:32:16.676Z,0.20
2022-12-27T03:34:32.196Z,0.30
2022-12-27T03:36:52.859Z,0.20
2022-12-27T03:39:06.129Z,0.20
2022-12-27T03:41:32.659Z,0.20
2022-12-27T03:43:39.357Z,0.20
2022-12-27T03:46:02.379Z,0.20
2022-12-27T03:48:06.611Z,0.20
2022-12-27T03:52:27.386Z,0.20
2022-12-27T03:54:37.631Z,0.20
2022-12-27T03:56:39.703Z,0.25
2022-12-27T03:58:41.326Z,0.20
2022-12-27T04:00:42.975Z,0.20
2022-12-27T04:02:47.645Z,0.20
2022-12-27T04:04:52.317Z,0.20
2022-12-27T04:06:56.813Z,0.20
2022-12-27T04:11:48.535Z,0.20
2022-12-27T04:14:08.868Z,0.20
2022-12-27T04:16:29.233Z,0.40
2022-12-27T04:18:49.558Z,0.20
2022-12-27T04:21:12.085Z,0.20
2022-12-27T04:23:35.320Z,0.20
2022-12-27T04:25:55.459Z,0.20
2022-12-27T04:28:18.220Z,0.20
2022-12-27T04:30:38.442Z,0.20
2022-12-27T04:32:58.559Z,0.20
2022-12-27T04:35:00.107Z,0.70
2022-12-27T04:37:01.761Z,0.28
2022-12-27T04:39:03.461Z,0.30
2022-12-27T04:41:23.680Z,0.20
2022-12-27T04:43:46.313Z,0.30
2022-12-27T04:46:06.455Z,0.30
2022-12-27T04:48:31.940Z,0.20
2022-12-27T04:50:54.738Z,0.30
2022-12-27T04:53:14.714Z,0.22
2022-12-27T04:55:26.208Z,0.20
2022-12-27T04:57:27.956Z,0.35
2022-12-27T04:59:47.963Z,0.20
2022-12-27T05:02:04.924Z,0.30
2022-12-27T05:04:06.530Z,0.20
2022-12-27T05:06:11.288Z,0.30
2022-12-27T05:08:32.550Z,0.32
2022-12-27T05:10:52.664Z,0.30
2022-12-27T05:13:18.365Z,0.20
2022-12-27T05:15:25.782Z,0.28
2022-12-27T05:17:33.330Z,0.20
2022-12-27T05:19:40.974Z,0.63
2022-12-27T05:22:04.084Z,0.30
2022-12-27T05:24:27.053Z,0.30
2022-12-27T05:26:30.164Z,0.28
2022-12-27T05:28:34.297Z,0.30
2022-12-27T05:32:46.112Z,0.20
2022-12-27T05:34:50.669Z,0.30
2022-12-27T05:39:02.277Z,0.38
2022-12-27T05:41:04.253Z,0.20
2022-12-27T05:43:08.473Z,0.77
2022-12-27T05:45:09.950Z,0.40
2022-12-27T05:47:14.433Z,0.22
2022-12-27T05:49:15.873Z,0.40
2022-12-27T05:51:19.221Z,0.43
2022-12-27T05:53:20.753Z,0.40
2022-12-27T05:55:22.381Z,0.75
2022-12-27T05:57:24.236Z,0.60
2022-12-27T05:59:31.912Z,1.38
2022-12-27T06:01:33.804Z,0.90
2022-12-27T06:03:38.316Z,1.50
2022-12-27T06:05:42.809Z,0.30
2022-12-27T06:07:44.401Z,0.30
2022-12-27T06:11:49.885Z,0.30
2022-12-27T06:13:52.680Z,0.35
2022-12-27T06:15:58.321Z,0.30
2022-12-27T06:18:00.396Z,0.63
2022-12-27T06:20:02.109Z,0.20
2022-12-27T06:22:06.284Z,0.20
2022-12-27T06:24:10.794Z,0.30
2022-12-27T06:26:14.097Z,0.40
2022-12-27T06:28:18.335Z,0.40
2022-12-27T06:30:19.931Z,0.30
2022-12-27T06:32:21.495Z,0.30
2022-12-27T06:34:25.956Z,0.40
2022-12-27T06:36:30.479Z,0.40
2022-12-27T06:38:31.922Z,0.20
2022-12-27T06:40:33.391Z,0.28
2022-12-27T06:42:34.872Z,0.63
2022-12-27T06:44:43.523Z,0.30
2022-12-27T06:46:47.910Z,0.40
2022-12-27T06:48:52.702Z,0.32
2022-12-27T06:50:54.471Z,0.30
2022-12-27T06:53:01.016Z,0.20
2022-12-27T06:55:03.277Z,0.40
2022-12-27T06:57:09.954Z,0.28
2022-12-27T07:01:25.094Z,0.40
2022-12-27T07:03:30.143Z,0.38
2022-12-27T07:05:37.951Z,0.40
2022-12-27T07:07:51.391Z,0.30
2022-12-27T07:10:01.419Z,0.30
2022-12-27T07:12:11.542Z,0.25
2022-12-27T07:14:15.057Z,0.35
2022-12-27T07:16:22.648Z,0.40
2022-12-27T07:18:31.857Z,0.43
2022-12-27T07:20:35.631Z,0.90
2022-12-27T07:22:38.889Z,0.22
2022-12-27T07:24:42.586Z,0.65
2022-12-27T07:26:46.573Z,0.40
2022-12-27T07:28:48.633Z,0.30
2022-12-27T07:30:50.109Z,0.30
2022-12-27T07:32:51.731Z,0.20
2022-12-27T07:34:53.210Z,0.40
2022-12-27T07:36:54.689Z,0.40
2022-12-27T07:38:56.326Z,0.40
2022-12-27T07:41:01.432Z,0.30
2022-12-27T07:43:02.940Z,0.25
2022-12-27T07:45:04.559Z,0.30
2022-12-27T07:47:06.020Z,0.20
2022-12-27T07:49:17.619Z,0.30
2022-12-27T07:51:19.390Z,0.20
2022-12-27T07:53:26.852Z,0.40
2022-12-27T07:55:34.298Z,0.30
2022-12-27T07:59:42.525Z,0.50
2022-12-27T08:04:10.852Z,0.35
2022-12-27T08:06:28.993Z,0.40
2022-12-27T08:08:40.589Z,0.30
2022-12-27T08:10:42.440Z,0.35
2022-12-27T08:12:43.925Z,0.55
2022-12-27T08:16:52.622Z,0.43
2022-12-27T08:18:56.989Z,0.20
2022-12-27T08:20:58.702Z,0.40
2022-12-27T08:23:02.964Z,0.30
2022-12-27T08:25:08.093Z,0.28
2022-12-27T08:27:09.967Z,0.25
2022-12-27T08:29:11.564Z,0.70
2022-12-27T08:31:13.562Z,0.30
2022-12-27T08:33:21.230Z,0.30
2022-12-27T08:35:51.441Z,0.38
2022-12-27T08:37:50.789Z,0.30
2022-12-27T08:39:53.133Z,0.20
2022-12-27T08:41:59.731Z,0.38
2022-12-27T08:44:01.196Z,0.28
2022-12-27T08:46:05.844Z,0.25
2022-12-27T08:48:13.506Z,0.90
2022-12-27T08:50:15.077Z,0.55
2022-12-27T08:52:19.588Z,0.30
2022-12-27T08:54:27.154Z,0.38
2022-12-27T08:56:31.738Z,0.25
2022-12-27T08:58:36.591Z,0.30
2022-12-27T09:00:44.024Z,0.20
2022-12-27T09:02:51.583Z,1.10
2022-12-27T09:04:53.228Z,0.40
2022-12-27T09:09:05.107Z,0.20
2022-12-27T09:11:07.797Z,1.00
2022-12-27T09:13:12.323Z,0.45
2022-12-27T09:15:13.817Z,0.35
2022-12-27T09:17:15.423Z,1.38
2022-12-27T09:19:19.798Z,0.43
2022-12-27T09:21:22.354Z,0.32
2022-12-27T09:23:23.888Z,0.35
2022-12-27T09:25:25.358Z,0.30
2022-12-27T09:27:26.853Z,0.50
2022-12-27T09:31:32.589Z,0.43
2022-12-27T09:35:38.736Z,0.30
2022-12-27T09:37:49.201Z,0.20
2022-12-27T09:39:51.525Z,0.20
2022-12-27T09:44:44.018Z,0.30
2022-12-27T09:46:51.762Z,0.20
2022-12-27T09:48:54.933Z,0.20
2022-12-27T09:50:58.081Z,0.20
2022-12-27T09:53:02.021Z,0.10
2022-12-27T09:55:11.469Z,0.10
2022-12-27T09:57:27.804Z,0.15
2022-12-27T09:59:37.646Z,1.80
2022-12-27T10:01:51.484Z,4.15
2022-12-27T10:04:09.026Z,3.80
2022-12-27T10:06:37.317Z,3.10
2022-12-27T10:09:27.147Z,1.42
2022-12-27T10:12:09.261Z,1.33
2022-12-27T10:14:30.777Z,6.07
2022-12-27T10:17:05.980Z,2.42
2022-12-27T10:19:25.860Z,1.05
2022-12-27T10:21:42.505Z,3.10
2022-12-27T10:24:03.535Z,2.38
2022-12-27T10:26:21.938Z,1.90
2022-12-27T10:28:42.376Z,3.58
2022-12-27T10:30:53.831Z,3.25
2022-12-27T10:33:07.904Z,2.40
2022-12-27T10:35:27.488Z,2.83
2022-12-27T10:37:31.722Z,1.60
2022-12-27T10:39:38.592Z,2.03
2022-12-27T10:41:50.346Z,2.20
2022-12-27T10:43:58.362Z,5.43
2022-12-27T10:46:13.456Z,4.05
2022-12-27T10:48:47.336Z,4.82
2022-12-27T10:50:55.840Z,5.38
2022-12-27T10:53:00.265Z,3.40
2022-12-27T10:55:04.741Z,6.43
2022-12-27T10:57:26.994Z,4.55
2022-12-27T10:59:29.077Z,4.03
2022-12-27T11:01:32.678Z,5.60
2022-12-27T11:03:37.253Z,3.10
2022-12-27T11:05:39.807Z,3.60
2022-12-27T11:07:44.181Z,3.42
2022-12-27T11:09:51.366Z,2.90
2022-12-27T11:12:16.196Z,2.90
2022-12-27T11:14:21.031Z,4.93
2022-12-27T11:16:30.556Z,4.15
2022-12-27T11:18:36.355Z,4.30
2022-12-27T11:20:39.516Z,4.53
2022-12-27T11:22:50.077Z,3.97
2022-12-27T11:24:56.143Z,6.93
2022-12-27T11:26:59.237Z,5.82
2022-12-27T11:29:01.679Z,3.40
2022-12-27T11:31:23.553Z,5.22
2022-12-27T11:33:34.255Z,9.27
2022-12-27T11:35:45.453Z,8.32
2022-12-27T11:37:52.927Z,3.92
2022-12-27T11:40:10.394Z,6.38
2022-12-27T11:42:14.953Z,7.70
2022-12-27T11:44:26.650Z,4.80
2022-12-27T11:46:36.555Z,6.82
2022-12-27T11:48:41.141Z,6.95
2022-12-27T11:50:48.417Z,5.32
2022-12-27T11:55:13.796Z,8.65
2022-12-27T11:57:24.384Z,11.63
2022-12-27T11:59:31.988Z,10.93
2022-12-27T12:01:48.672Z,8.57
2022-12-27T12:04:10.848Z,6.45
2022-12-27T12:08:37.401Z,8.70
2022-12-27T12:11:07.997Z,5.72
2022-12-27T12:13:12.531Z,7.88
2022-12-27T12:15:32.478Z,10.10
2022-12-27T12:18:09.311Z,7.60
2022-12-27T12:20:16.868Z,12.43
2022-12-27T12:22:27.412Z,6.90
2022-12-27T12:24:47.716Z,5.65
2022-12-27T12:26:56.036Z,9.35
2022-12-27T12:29:16.159Z,11.80
2022-12-27T12:31:39.033Z,7.60
2022-12-27T12:33:51.713Z,10.23
2022-12-27T12:36:11.005Z,4.43
2022-12-27T12:38:21.214Z,6.90
2022-12-27T12:40:22.628Z,9.10
2022-12-27T12:42:52.839Z,9.55
2022-12-27T12:44:54.393Z,9.43
2022-12-27T12:46:58.117Z,7.60
2022-12-27T12:49:08.129Z,12.07
2022-12-27T12:51:15.159Z,8.10
2022-12-27T12:53:23.285Z,4.00
2022-12-27T12:55:38.471Z,5.10
2022-12-27T12:57:43.202Z,7.18
2022-12-27T13:00:10.224Z,8.38
2022-12-27T13:02:32.584Z,5.43
2022-12-27T13:04:48.169Z,7.35
2022-12-27T13:07:15.032Z,10.57
2022-12-27T13:09:38.755Z,10.82
2022-12-27T13:12:02.512Z,9.50
2022-12-27T13:14:18.049Z,8.32
2022-12-27T13:16:37.123Z,11.38
2022-12-27T13:18:54.246Z,8.63
2022-12-27T13:21:23.345Z,12.57
2022-12-27T13:24:10.836Z,6.57
2022-12-27T13:26:23.751Z,11.30
2022-12-27T13:28:49.161Z,7.47
2022-12-27T13:31:00.814Z,11.98
2022-12-27T13:33:18.969Z,17.08
2022-12-27T13:35:30.299Z,9.23
2022-12-27T13:37:34.846Z,8.00
2022-12-27T13:39:41.642Z,13.13
2022-12-27T13:42:01.584Z,9.27
2022-12-27T13:44:09.454Z,12.95
2022-12-27T13:46:24.721Z,6.90
2022-12-27T13:48:40.872Z,11.25
2022-12-27T13:50:54.971Z,14.13
2022-12-27T13:53:00.123Z,16.80
2022-12-27T13:55:20.950Z,15.57
2022-12-27T13:57:25.536Z,8.20
2022-12-27T13:59:45.878Z,14.93
2022-12-27T14:01:47.389Z,11.38
2022-12-27T14:03:54.894Z,11.73
2022-12-27T14:06:07.053Z,15.05
2022-12-27T14:08:27.032Z,9.57
2022-12-27T14:10:35.192Z,13.05
2022-12-27T14:12:52.669Z,12.57
2022-12-27T14:14:56.836Z,7.55
2022-12-27T14:17:03.748Z,14.13
2022-12-27T14:19:22.893Z,8.10
2022-12-27T14:21:41.792Z,9.75
2022-12-27T14:23:49.308Z,9.15
2022-12-27T14:25:56.040Z,10.15
2022-12-27T14:30:10.702Z,14.95
2022-12-27T14:32:33.899Z,7.43
2022-12-27T14:34:59.076Z,10.30
2022-12-27T14:37:03.598Z,9.80
2022-12-27T14:41:18.412Z,10.27
2022-12-27T14:43:40.815Z,8.35
2022-12-27T14:47:54.883Z,11.20
2022-12-27T14:50:05.484Z,8.88
2022-12-27T14:52:25.783Z,11.20
2022-12-27T14:54:40.516Z,17.35
2022-12-27T14:57:03.549Z,13.77
2022-12-27T14:59:18.533Z,12.95
2022-12-27T15:01:33.123Z,11.65
2022-12-27T15:04:07.189Z,13.35
2022-12-27T15:06:28.965Z,12.90
2022-12-27T15:08:42.657Z,8.25
2022-12-27T15:10:50.428Z,7.55
2022-12-27T15:13:15.467Z,19.30
2022-12-27T15:15:38.268Z,11.25
2022-12-27T15:18:21.280Z,9.73
2022-12-27T15:20:25.546Z,15.57
2022-12-27T15:24:43.335Z,12.50
2022-12-27T15:26:55.140Z,11.77
2022-12-27T15:29:04.703Z,11.15
2022-12-27T15:31:15.968Z,17.67
2022-12-27T15:33:20.235Z,12.57
2022-12-27T15:37:46.904Z,13.03
2022-12-27T15:39:51.154Z,14.32
2022-12-27T15:42:11.467Z,9.45
2022-12-27T15:44:12.832Z,10.98
2022-12-27T15:46:29.737Z,6.35
2022-12-27T15:48:40.016Z,15.60
2022-12-27T15:50:51.510Z,10.85
2022-12-27T15:53:11.735Z,12.65
2022-12-27T15:55:19.737Z,10.50
2022-12-27T15:57:39.463Z,12.23
2022-12-27T15:59:45.950Z,8.80
2022-12-27T16:02:10.580Z,14.95
2022-12-27T16:04:52.017Z,12.77
2022-12-27T16:06:56.555Z,11.15
2022-12-27T16:09:19.678Z,22.05
2022-12-27T16:11:50.501Z,14.00
2022-12-27T16:14:16.451Z,16.90
2022-12-27T16:16:28.857Z,12.50
2022-12-27T16:18:48.620Z,12.57
2022-12-27T16:20:58.614Z,8.30
2022-12-27T16:23:04.634Z,13.38
2022-12-27T16:25:30.693Z,9.55
2022-12-27T16:27:34.875Z,5.13
2022-12-27T16:29:45.226Z,10.27
2022-12-27T16:31:52.102Z,11.50
2022-12-27T16:33:57.053Z,10.43
2022-12-27T16:36:19.020Z,16.45
2022-12-27T16:38:32.959Z,12.57
2022-12-27T16:40:44.071Z,15.10
2022-12-27T16:42:57.652Z,7.75
2022-12-27T16:45:25.192Z,6.70
2022-12-27T16:47:30.059Z,8.40
2022-12-27T16:49:40.393Z,5.93
2022-12-27T16:51:50.218Z,6.95
2022-12-27T16:53:54.385Z,8.50
2022-12-27T16:56:16.211Z,7.82
2022-12-27T16:58:18.355Z,11.05
2022-12-27T17:00:25.835Z,5.88
2022-12-27T17:02:39.620Z,4.78
2022-12-27T17:04:50.254Z,6.90
2022-12-27T17:06:56.015Z,7.78
2022-12-27T17:09:09.282Z,5.70
2022-12-27T17:11:24.633Z,13.68
2022-12-27T17:13:48.219Z,6.03
2022-12-27T17:15:56.584Z,8.35
2022-12-27T17:18:04.415Z,4.47
2022-12-27T17:20:06.646Z,9.27
2022-12-27T17:22:13.599Z,6.35
2022-12-27T17:24:19.800Z,6.10
2022-12-27T17:26:30.369Z,5.72
2022-12-27T17:28:39.768Z,11.02
2022-12-27T17:31:07.583Z,6.82
2022-12-27T17:33:33.834Z,10.20
2022-12-27T17:35:41.187Z,11.55
2022-12-27T17:38:03.812Z,10.02
2022-12-27T17:40:16.746Z,9.75
2022-12-27T17:42:49.725Z,8.48
2022-12-27T17:45:08.813Z,11.95
2022-12-27T17:47:15.621Z,16.38
2022-12-27T17:49:25.211Z,9.43
2022-12-27T17:51:31.480Z,10.20
2022-12-27T17:54:03.079Z,11.25
2022-12-27T17:56:29.075Z,10.30
2022-12-27T17:58:34.341Z,13.80
2022-12-27T18:00:39.417Z,10.30
2022-12-27T18:02:43.672Z,10.38
2022-12-27T18:04:50.214Z,12.13
2022-12-27T18:07:01.724Z,22.88
2022-12-27T18:09:04.609Z,8.32
2022-12-27T18:11:06.387Z,9.75
2022-12-27T18:13:13.281Z,8.75
2022-12-27T18:15:16.978Z,12.65
2022-12-27T18:17:32.221Z,16.27
2022-12-27T18:19:36.245Z,13.30
2022-12-27T18:21:53.845Z,6.70
2022-12-27T18:26:12.359Z,15.50
2022-12-27T18:28:28.658Z,15.15
2022-12-27T18:30:39.656Z,11.05
2022-12-27T18:32:44.114Z,12.70
2022-12-27T18:34:56.077Z,12.60
2022-12-27T18:36:57.546Z,14.90
2022-12-27T18:39:01.032Z,12.85
2022-12-27T18:41:12.560Z,10.68
2022-12-27T18:43:15.597Z,19.33
2022-12-27T18:45:26.349Z,25.00
2022-12-27T18:47:31.088Z,14.65
2022-12-27T18:49:36.695Z,19.65
2022-12-27T18:51:39.389Z,15.90
2022-12-27T18:53:43.916Z,11.88
2022-12-27T18:56:17.682Z,13.57
2022-12-27T18:58:23.453Z,18.45
2022-12-27T19:00:29.263Z,17.15
2022-12-27T19:02:37.013Z,15.68
2022-12-27T19:04:41.115Z,14.32
2022-12-27T19:06:45.267Z,19.40
2022-12-27T19:10:50.189Z,22.25
2022-12-27T19:12:55.586Z,24.92
2022-12-27T19:15:04.928Z,24.92
2022-12-27T19:17:11.302Z,22.23
2022-12-27T19:19:29.511Z,15.02
2022-12-27T19:21:52.966Z,15.32
2022-12-27T19:24:25.295Z,13.38
2022-12-27T19:26:51.796Z,17.30
2022-12-27T19:29:02.364Z,23.85
2022-12-27T19:31:25.900Z,18.92
2022-12-27T19:33:44.539Z,27.45
2022-12-27T19:36:08.942Z,21.80
2022-12-27T19:38:47.858Z,21.58
2022-12-27T19:41:10.267Z,22.02
2022-12-27T19:43:30.125Z,18.52
2022-12-27T19:45:40.367Z,21.95
2022-12-27T19:48:10.329Z,22.08
2022-12-27T19:50:20.929Z,15.60
2022-12-27T19:52:38.674Z,29.75
2022-12-27T19:54:58.704Z,17.95
2022-12-27T19:57:20.695Z,14.65
2022-12-27T19:59:30.572Z,11.05
2022-12-27T20:01:35.186Z,15.32
2022-12-27T20:03:39.873Z,11.65
2022-12-27T20:08:22.689Z,14.80
2022-12-27T20:10:24.147Z,10.75
2022-12-27T20:12:25.653Z,12.90
2022-12-27T20:14:27.133Z,14.43
2022-12-27T20:16:31.348Z,9.15
2022-12-27T20:18:37.342Z,9.45
2022-12-27T20:20:39.101Z,8.63
2022-12-27T20:22:40.677Z,12.43
2022-12-27T20:24:42.127Z,10.80
2022-12-27T20:26:44.040Z,9.25
2022-12-27T20:28:48.526Z,8.75
2022-12-27T20:30:52.965Z,9.93
2022-12-27T20:33:01.104Z,8.38
2022-12-27T20:35:02.739Z,10.68
2022-12-27T20:37:04.652Z,10.35
2022-12-27T20:39:07.623Z,8.55
2022-12-27T20:41:10.620Z,10.48
2022-12-27T20:43:12.094Z,10.65
2022-12-27T20:45:13.580Z,7.40
2022-12-27T20:47:15.045Z,6.03
2022-12-27T20:49:16.608Z,4.95
2022-12-27T20:51:22.343Z,6.63
2022-12-27T20:53:27.935Z,11.25
2022-12-27T20:55:34.294Z,7.82
2022-12-27T20:57:36.125Z,6.05
2022-12-27T20:59:37.567Z,7.30
2022-12-27T21:01:39.180Z,11.35
2022-12-27T21:03:41.173Z,5.28
2022-12-27T21:05:42.732Z,6.88
2022-12-27T21:07:44.267Z,7.50
2022-12-27T21:09:45.898Z,6.75
2022-12-27T21:13:55.007Z,9.65
2022-12-27T21:15:56.468Z,4.82
2022-12-27T21:17:57.981Z,3.28
2022-12-27T21:20:02.760Z,5.45
2022-12-27T21:22:07.287Z,2.40
2022-12-27T21:24:14.958Z,4.55
2022-12-27T21:26:18.118Z,4.10
2022-12-27T21:28:22.391Z,3.17
2022-12-27T21:30:26.919Z,5.88
2022-12-27T21:34:35.629Z,2.97
2022-12-27T21:36:38.346Z,2.65
2022-12-27T21:38:40.368Z,2.17
2022-12-27T21:40:41.823Z,5.85
2022-12-27T21:42:43.268Z,2.20
2022-12-27T21:44:44.738Z,2.67
2022-12-27T21:46:49.411Z,2.67
2022-12-27T21:48:58.499Z,4.32
2022-12-27T21:51:10.530Z,4.47
2022-12-27T21:53:12.179Z,1.48
2022-12-27T21:55:16.586Z,5.88
2022-12-27T21:57:18.060Z,1.52
2022-12-27T21:59:19.678Z,1.65
2022-12-27T22:01:28.452Z,2.15
2022-12-27T22:03:34.001Z,2.60
2022-12-27T22:05:38.664Z,2.92
2022-12-27T22:07:42.900Z,3.80
2022-12-27T22:09:47.361Z,1.65
2022-12-27T22:11:51.940Z,1.75
2022-12-27T22:13:56.619Z,4.28
2022-12-27T22:15:58.857Z,3.35
2022-12-27T22:18:03.900Z,2.40
2022-12-27T22:20:05.695Z,2.30
2022-12-27T22:22:19.248Z,3.15
2022-12-27T22:24:30.092Z,2.88
2022-12-27T22:26:52.148Z,2.38
2022-12-27T22:29:16.395Z,1.77
2022-12-27T22:31:56.184Z,4.00
2022-12-27T22:34:14.455Z,1.17
2022-12-27T22:36:42.949Z,1.80
2022-12-27T22:39:13.085Z,2.03
2022-12-27T22:41:35.749Z,3.05
2022-12-27T22:43:43.671Z,5.88
2022-12-27T22:45:53.607Z,1.60
2022-12-27T22:48:00.945Z,3.47
2022-12-27T22:50:08.412Z,2.28
2022-12-27T22:52:12.563Z,2.08
2022-12-27T22:54:20.008Z,1.52
2022-12-27T22:56:31.411Z,2.22
2022-12-27T22:58:38.641Z,1.63
2022-12-27T23:00:45.489Z,4.88
2022-12-27T23:02:49.515Z,3.08
2022-12-27T23:04:59.616Z,1.77
2022-12-27T23:07:07.465Z,3.08
2022-12-27T23:09:14.051Z,0.88
2022-12-27T23:11:25.464Z,1.48
2022-12-27T23:13:30.219Z,2.65
2022-12-27T23:15:34.534Z,4.68
2022-12-27T23:17:44.562Z,1.58
2022-12-27T23:19:48.963Z,3.33
2022-12-27T23:21:53.811Z,3.50
2022-12-27T23:23:56.684Z,1.48
2022-12-27T23:26:03.182Z,2.80
2022-12-27T23:28:04.791Z,1.00
2022-12-27T23:30:06.552Z,1.98
2022-12-27T23:32:08.107Z,3.80
2022-12-27T23:34:12.912Z,0.47
2022-12-27T23:36:14.489Z,2.90
2022-12-27T23:38:15.887Z,2.58
2022-12-27T23:40:17.347Z,1.75
2022-12-27T23:42:21.523Z,2.00
2022-12-27T23:44:33.431Z,2.58
2022-12-27T23:46:36.427Z,2.17
2022-12-27T23:48:38.208Z,0.85
2022-12-27T23:50:42.336Z,1.48
2022-12-27T23:52:45.187Z,1.35
2022-12-27T23:54:46.659Z,1.48
2022-12-27T23:56:48.150Z,1.77
2022-12-27T23:58:50.681Z,1.75
